createdAt,value
2022-12-01T00:01:07.950Z,3.24
2022-12-01T00:03:34.552Z,3.32
2022-12-01T00:06:03.277Z,3.31
2022-12-01T00:08:30.805Z,3.27
2022-12-01T00:11:07.957Z,3.24
2022-12-01T00:13:35.542Z,3.21
2022-12-01T00:16:20.318Z,3.21
2022-12-01T00:18:50.253Z,3.18
2022-12-01T00:21:22.404Z,3.13
2022-12-01T00:23:51.301Z,3.18
2022-12-01T00:26:19.348Z,3.24
2022-12-01T00:28:53.544Z,3.14
2022-12-01T00:31:20.371Z,3.19
2022-12-01T00:33:46.944Z,3.18
2022-12-01T00:36:14.076Z,3.18
2022-12-01T00:38:40.798Z,3.16
2022-12-01T00:41:07.338Z,3.24
2022-12-01T00:43:33.969Z,3.25
2022-12-01T00:46:00.621Z,3.19
2022-12-01T00:48:27.459Z,3.23
2022-12-01T00:50:54.943Z,3.32
2022-12-01T00:53:22.377Z,3.30
2022-12-01T00:55:48.905Z,3.19
2022-12-01T00:58:15.545Z,3.26
2022-12-01T01:00:43.020Z,3.29
2022-12-01T01:03:10.490Z,3.26
2022-12-01T01:05:41.049Z,3.11
2022-12-01T01:08:12.159Z,3.19
2022-12-01T01:10:43.225Z,3.21
2022-12-01T01:13:10.507Z,3.26
2022-12-01T01:15:37.041Z,3.15
2022-12-01T01:18:04.303Z,3.24
2022-12-01T01:20:31.322Z,3.21
2022-12-01T01:22:58.072Z,3.24
2022-12-01T01:25:25.022Z,3.23
2022-12-01T01:27:51.674Z,3.26
2022-12-01T01:30:18.322Z,3.35
2022-12-01T01:32:45.034Z,3.25
2022-12-01T01:35:11.488Z,3.22
2022-12-01T01:37:38.040Z,3.11
2022-12-01T01:40:05.481Z,3.22
2022-12-01T01:42:32.057Z,3.21
2022-12-01T01:44:59.110Z,3.21
2022-12-01T01:47:40.536Z,3.24
2022-12-01T01:50:12.938Z,3.26
2022-12-01T01:52:45.184Z,3.26
2022-12-01T01:55:12.722Z,3.31
2022-12-01T01:57:40.182Z,3.32
2022-12-01T02:00:09.991Z,3.16
2022-12-01T02:02:40.936Z,3.25
2022-12-01T02:05:13.774Z,3.28
2022-12-01T02:07:42.056Z,3.33
2022-12-01T02:10:12.550Z,3.25
2022-12-01T02:12:49.946Z,3.20
2022-12-01T02:15:22.946Z,3.26
2022-12-01T02:18:14.327Z,3.26
2022-12-01T02:21:03.590Z,3.34
2022-12-01T02:23:50.590Z,3.31
2022-12-01T02:26:51.344Z,3.25
2022-12-01T02:29:26.760Z,3.22
2022-12-01T02:32:18.734Z,3.26
2022-12-01T02:34:56.794Z,3.19
2022-12-01T02:37:36.318Z,3.31
2022-12-01T02:40:11.661Z,3.30
2022-12-01T02:42:49.934Z,3.25
2022-12-01T02:45:49.221Z,3.28
2022-12-01T02:48:25.901Z,3.35
2022-12-01T02:50:53.902Z,3.31
2022-12-01T02:53:21.078Z,3.26
2022-12-01T02:55:49.398Z,3.26
2022-12-01T02:58:15.896Z,3.30
2022-12-01T03:00:55.961Z,3.32
2022-12-01T03:03:38.349Z,3.37
2022-12-01T03:06:10.716Z,3.29
2022-12-01T03:08:56.498Z,3.29
2022-12-01T03:11:34.442Z,3.32
2022-12-01T03:14:22.929Z,3.30
2022-12-01T03:16:54.024Z,3.28
2022-12-01T03:19:34.229Z,3.18
2022-12-01T03:22:12.395Z,3.13
2022-12-01T03:24:42.386Z,3.24
2022-12-01T03:27:11.444Z,3.19
2022-12-01T03:29:43.948Z,3.22
2022-12-01T03:32:16.244Z,3.25
2022-12-01T03:34:50.031Z,3.21
2022-12-01T03:37:31.822Z,3.20
2022-12-01T03:40:01.054Z,3.23
2022-12-01T03:42:37.422Z,3.26
2022-12-01T03:45:10.858Z,3.26
2022-12-01T03:47:39.646Z,3.20
2022-12-01T03:50:08.114Z,3.22
2022-12-01T03:52:50.720Z,3.29
2022-12-01T03:55:23.711Z,3.14
2022-12-01T03:57:57.052Z,3.21
2022-12-01T04:00:24.533Z,3.20
2022-12-01T04:02:58.512Z,3.25
2022-12-01T04:05:26.488Z,3.32
2022-12-01T04:07:53.393Z,3.18
2022-12-01T04:10:20.064Z,3.31
2022-12-01T04:12:46.593Z,3.25
2022-12-01T04:15:14.574Z,3.27
2022-12-01T04:17:45.691Z,3.35
2022-12-01T04:20:14.374Z,3.27
2022-12-01T04:22:41.021Z,3.31
2022-12-01T04:25:08.413Z,3.28
2022-12-01T04:27:35.336Z,3.15
2022-12-01T04:30:02.567Z,3.26
2022-12-01T04:32:29.260Z,3.29
2022-12-01T04:34:55.746Z,3.24
2022-12-01T04:37:22.243Z,3.18
2022-12-01T04:39:49.174Z,3.19
2022-12-01T04:42:15.820Z,3.29
2022-12-01T04:44:42.133Z,3.22
2022-12-01T04:47:08.679Z,3.21
2022-12-01T04:49:37.246Z,3.24
2022-12-01T04:52:04.105Z,3.26
2022-12-01T04:54:30.401Z,3.19
2022-12-01T04:56:57.106Z,3.17
2022-12-01T04:59:23.475Z,3.12
2022-12-01T05:01:50.048Z,3.14
2022-12-01T05:04:16.813Z,3.21
2022-12-01T05:06:43.653Z,3.15
2022-12-01T05:09:17.367Z,3.15
2022-12-01T05:11:44.328Z,3.19
2022-12-01T05:14:10.823Z,3.14
2022-12-01T05:16:37.766Z,3.21
2022-12-01T05:19:24.453Z,3.17
2022-12-01T05:21:51.729Z,3.25
2022-12-01T05:24:19.734Z,3.29
2022-12-01T05:26:46.217Z,3.23
2022-12-01T05:29:13.268Z,3.30
2022-12-01T05:31:39.879Z,3.32
2022-12-01T05:34:07.407Z,3.30
2022-12-01T05:36:33.718Z,3.22
2022-12-01T05:39:00.230Z,3.30
2022-12-01T05:41:26.722Z,3.23
2022-12-01T05:43:53.052Z,3.26
2022-12-01T05:46:19.955Z,3.29
2022-12-01T05:48:47.350Z,3.25
2022-12-01T05:51:16.701Z,3.23
2022-12-01T05:53:44.040Z,3.20
2022-12-01T05:56:10.919Z,3.20
2022-12-01T05:58:37.896Z,3.28
2022-12-01T06:01:04.675Z,3.28
2022-12-01T06:03:31.006Z,3.19
2022-12-01T06:05:57.517Z,3.18
2022-12-01T06:08:24.103Z,3.17
2022-12-01T06:10:50.673Z,3.21
2022-12-01T06:13:17.337Z,3.15
2022-12-01T06:15:43.861Z,3.21
2022-12-01T06:18:10.457Z,3.24
2022-12-01T06:20:37.038Z,3.20
2022-12-01T06:23:03.624Z,3.18
2022-12-01T06:25:30.174Z,3.27
2022-12-01T06:27:59.826Z,3.22
2022-12-01T06:30:26.665Z,3.25
2022-12-01T06:32:53.215Z,3.19
2022-12-01T06:35:20.011Z,3.26
2022-12-01T06:37:46.622Z,3.17
2022-12-01T06:40:13.496Z,3.18
2022-12-01T06:42:39.960Z,3.14
2022-12-01T06:45:06.703Z,3.22
2022-12-01T06:47:33.212Z,3.24
2022-12-01T06:49:59.892Z,3.26
2022-12-01T06:52:27.091Z,3.29
2022-12-01T06:54:53.930Z,3.30
2022-12-01T06:57:21.111Z,3.25
2022-12-01T06:59:47.971Z,3.29
2022-12-01T07:02:15.317Z,3.35
2022-12-01T07:04:41.762Z,3.32
2022-12-01T07:07:08.385Z,3.35
2022-12-01T07:09:35.243Z,3.33
2022-12-01T07:12:01.693Z,3.28
2022-12-01T07:14:28.329Z,3.39
2022-12-01T07:16:55.105Z,3.35
2022-12-01T07:19:21.696Z,3.41
2022-12-01T07:21:48.071Z,3.33
2022-12-01T07:24:14.701Z,3.36
2022-12-01T07:26:41.458Z,3.41
2022-12-01T07:29:09.366Z,3.40
2022-12-01T07:31:38.330Z,3.44
2022-12-01T07:34:05.705Z,3.46
2022-12-01T07:36:32.309Z,3.53
2022-12-01T07:38:58.918Z,3.51
2022-12-01T07:41:25.515Z,3.58
2022-12-01T07:43:52.296Z,3.69
2022-12-01T07:46:23.482Z,3.57
2022-12-01T07:48:50.776Z,3.61
2022-12-01T07:51:17.826Z,3.73
2022-12-01T07:53:49.194Z,3.76
2022-12-01T07:56:16.915Z,3.81
2022-12-01T07:58:43.387Z,3.87
2022-12-01T08:01:14.924Z,3.79
2022-12-01T08:03:42.483Z,4.01
2022-12-01T08:06:09.705Z,4.05
2022-12-01T08:08:38.400Z,3.96
2022-12-01T08:11:07.838Z,4.03
2022-12-01T08:13:34.925Z,4.02
2022-12-01T08:16:06.254Z,4.19
2022-12-01T08:18:37.584Z,4.34
2022-12-01T08:21:05.407Z,4.42
2022-12-01T08:23:32.136Z,4.61
2022-12-01T08:26:03.128Z,4.66
2022-12-01T08:28:30.090Z,4.80
2022-12-01T08:30:56.635Z,4.82
2022-12-01T08:33:23.981Z,4.66
2022-12-01T08:35:50.293Z,4.78
2022-12-01T08:38:17.034Z,4.92
2022-12-01T08:40:43.543Z,4.92
2022-12-01T08:43:15.192Z,5.03
2022-12-01T08:45:49.503Z,4.97
2022-12-01T08:48:16.049Z,5.34
2022-12-01T08:50:42.628Z,5.19
2022-12-01T08:53:09.201Z,5.19
2022-12-01T08:55:35.700Z,5.21
2022-12-01T08:58:02.157Z,5.39
2022-12-01T09:00:29.321Z,5.13
2022-12-01T09:02:55.843Z,5.27
2022-12-01T09:05:22.411Z,5.26
2022-12-01T09:08:08.921Z,5.44
2022-12-01T09:10:35.527Z,5.20
2022-12-01T09:13:01.926Z,5.48
2022-12-01T09:15:28.519Z,5.48
2022-12-01T09:17:55.082Z,5.79
2022-12-01T09:20:21.631Z,5.67
2022-12-01T09:22:48.161Z,5.62
2022-12-01T09:25:14.831Z,5.59
2022-12-01T09:27:41.392Z,5.72
2022-12-01T09:30:08.441Z,5.41
2022-12-01T09:32:34.951Z,5.26
2022-12-01T09:35:01.418Z,5.28
2022-12-01T09:37:27.988Z,5.28
2022-12-01T09:39:54.500Z,5.45
2022-12-01T09:42:30.878Z,5.69
2022-12-01T09:45:05.112Z,5.79
2022-12-01T09:47:35.055Z,5.87
2022-12-01T09:50:14.697Z,6.05
2022-12-01T09:53:06.647Z,5.91
2022-12-01T09:55:35.071Z,5.61
2022-12-01T09:58:03.394Z,5.49
2022-12-01T10:00:33.141Z,5.40
2022-12-01T10:03:35.017Z,5.56
2022-12-01T10:06:28.562Z,5.72
2022-12-01T10:09:13.029Z,5.61
2022-12-01T10:11:42.853Z,5.78
2022-12-01T10:14:19.716Z,5.40
2022-12-01T10:17:06.901Z,5.54
2022-12-01T10:19:50.626Z,5.50
2022-12-01T10:22:49.525Z,5.90
2022-12-01T10:25:38.117Z,6.05
2022-12-01T10:28:34.145Z,5.77
2022-12-01T10:31:53.702Z,5.99
2022-12-01T10:34:25.484Z,5.89
2022-12-01T10:36:52.255Z,6.54
2022-12-01T10:39:31.328Z,6.17
2022-12-01T10:42:06.078Z,6.07
2022-12-01T10:44:33.961Z,5.94
2022-12-01T10:47:00.461Z,5.92
2022-12-01T10:49:41.291Z,6.04
2022-12-01T10:52:27.272Z,5.93
2022-12-01T10:54:53.782Z,6.06
2022-12-01T10:57:20.386Z,5.92
2022-12-01T10:59:57.941Z,5.71
2022-12-01T11:02:27.779Z,5.46
2022-12-01T11:05:31.946Z,5.62
2022-12-01T11:07:59.056Z,5.59
2022-12-01T11:10:37.396Z,5.64
2022-12-01T11:13:24.002Z,5.67
2022-12-01T11:15:58.683Z,5.57
2022-12-01T11:18:27.948Z,5.61
2022-12-01T11:21:14.338Z,5.42
2022-12-01T11:23:48.789Z,5.55
2022-12-01T11:26:32.110Z,5.58
2022-12-01T11:29:02.455Z,5.51
2022-12-01T11:31:43.845Z,5.63
2022-12-01T11:34:24.537Z,5.49
2022-12-01T11:36:55.774Z,5.59
2022-12-01T11:39:34.005Z,5.84
2022-12-01T11:42:26.155Z,5.56
2022-12-01T11:45:00.473Z,5.71
2022-12-01T11:47:27.771Z,5.63
2022-12-01T11:50:03.252Z,5.72
2022-12-01T11:52:33.433Z,5.89
2022-12-01T11:55:08.468Z,5.97
2022-12-01T11:57:37.639Z,5.96
2022-12-01T12:00:19.135Z,6.02
2022-12-01T12:03:08.576Z,6.04
2022-12-01T12:06:11.728Z,6.08
2022-12-01T12:09:29.428Z,5.91
2022-12-01T12:12:16.521Z,6.00
2022-12-01T12:15:16.776Z,5.82
2022-12-01T12:17:58.491Z,5.99
2022-12-01T12:20:35.648Z,5.97
2022-12-01T12:23:29.708Z,5.98
2022-12-01T12:26:23.397Z,6.03
2022-12-01T12:29:27.561Z,5.97
2022-12-01T12:32:15.254Z,5.94
2022-12-01T12:35:02.822Z,6.00
2022-12-01T12:37:51.699Z,5.99
2022-12-01T12:40:21.149Z,5.86
2022-12-01T12:43:17.931Z,5.96
2022-12-01T12:45:59.585Z,5.92
2022-12-01T12:49:18.042Z,5.79
2022-12-01T12:51:47.858Z,5.89
2022-12-01T12:54:20.654Z,5.85
2022-12-01T12:56:51.465Z,5.89
2022-12-01T12:59:37.214Z,5.81
2022-12-01T13:02:24.485Z,5.74
2022-12-01T13:05:15.117Z,5.76
2022-12-01T13:07:49.817Z,5.71
2022-12-01T13:10:33.245Z,5.85
2022-12-01T13:13:12.118Z,5.93
2022-12-01T13:15:41.650Z,5.86
2022-12-01T13:18:23.377Z,5.75
2022-12-01T13:20:52.105Z,5.72
2022-12-01T13:23:21.201Z,5.77
2022-12-01T13:25:54.851Z,5.74
2022-12-01T13:28:27.568Z,5.67
2022-12-01T13:31:20.972Z,5.51
2022-12-01T13:34:04.942Z,5.59
2022-12-01T13:36:49.229Z,5.48
2022-12-01T13:39:24.728Z,5.40
2022-12-01T13:42:00.665Z,5.42
2022-12-01T13:44:39.876Z,5.44
2022-12-01T13:48:22.991Z,5.41
2022-12-01T13:50:57.357Z,5.32
2022-12-01T13:53:30.199Z,5.34
2022-12-01T13:56:02.667Z,5.42
2022-12-01T13:58:35.089Z,5.45
2022-12-01T14:01:20.217Z,5.28
2022-12-01T14:04:11.760Z,5.34
2022-12-01T14:06:49.512Z,5.32
2022-12-01T14:09:31.642Z,5.39
2022-12-01T14:12:01.385Z,5.30
2022-12-01T14:14:36.177Z,5.27
2022-12-01T14:17:03.683Z,5.25
2022-12-01T14:19:42.322Z,5.15
2022-12-01T14:22:33.289Z,5.29
2022-12-01T14:25:01.246Z,5.24
2022-12-01T14:27:34.790Z,5.02
2022-12-01T14:30:45.981Z,4.99
2022-12-01T14:33:42.131Z,4.88
2022-12-01T14:36:11.640Z,4.94
2022-12-01T14:38:38.573Z,4.82
2022-12-01T14:41:10.542Z,4.84
2022-12-01T14:43:59.036Z,4.89
2022-12-01T14:46:30.906Z,4.80
2022-12-01T14:48:58.571Z,4.80
2022-12-01T14:51:34.356Z,4.81
2022-12-01T14:54:08.717Z,4.70
2022-12-01T14:56:37.181Z,4.64
2022-12-01T14:59:23.007Z,4.64
2022-12-01T15:01:52.650Z,4.70
2022-12-01T15:04:19.871Z,4.62
2022-12-01T15:06:46.871Z,4.59
2022-12-01T15:09:34.135Z,4.56
2022-12-01T15:12:04.904Z,4.62
2022-12-01T15:14:37.739Z,4.63
2022-12-01T15:17:06.260Z,4.58
2022-12-01T15:19:39.151Z,4.54
2022-12-01T15:22:14.761Z,4.57
2022-12-01T15:24:42.019Z,4.51
2022-12-01T15:27:30.365Z,4.49
2022-12-01T15:30:03.288Z,4.44
2022-12-01T15:32:31.859Z,4.54
2022-12-01T15:35:04.774Z,4.53
2022-12-01T15:37:43.186Z,4.59
2022-12-01T15:43:06.337Z,4.54
2022-12-01T15:45:51.323Z,4.57
2022-12-01T15:48:28.704Z,4.47
2022-12-01T15:51:19.407Z,4.53
2022-12-01T15:53:50.181Z,4.48
2022-12-01T15:56:24.369Z,4.53
2022-12-01T15:58:51.861Z,4.53
2022-12-01T16:01:19.929Z,4.62
2022-12-01T16:04:04.593Z,4.60
2022-12-01T16:06:34.662Z,4.48
2022-12-01T16:09:04.480Z,4.48
2022-12-01T16:11:31.486Z,4.44
2022-12-01T16:14:02.196Z,4.39
2022-12-01T16:16:29.348Z,4.48
2022-12-01T16:18:57.824Z,4.50
2022-12-01T16:21:26.515Z,4.49
2022-12-01T16:24:01.041Z,4.34
2022-12-01T16:26:28.577Z,4.32
2022-12-01T16:28:56.187Z,4.32
2022-12-01T16:31:23.073Z,4.38
2022-12-01T16:34:06.568Z,4.41
2022-12-01T16:36:40.497Z,4.47
2022-12-01T16:39:07.989Z,4.52
2022-12-01T16:41:38.780Z,4.56
2022-12-01T16:44:27.733Z,4.56
2022-12-01T16:46:52.097Z,4.67
2022-12-01T16:49:18.573Z,4.71
2022-12-01T16:52:11.179Z,4.74
2022-12-01T16:54:31.423Z,4.74
2022-12-01T16:56:57.735Z,4.72
2022-12-01T16:59:24.747Z,4.70
2022-12-01T17:01:51.146Z,4.75
2022-12-01T17:04:18.135Z,4.80
2022-12-01T17:06:44.652Z,4.81
2022-12-01T17:09:11.010Z,4.84
2022-12-01T17:11:37.509Z,4.81
2022-12-01T17:14:04.060Z,4.82
2022-12-01T17:16:30.724Z,4.87
2022-12-01T17:18:57.270Z,4.86
2022-12-01T17:21:23.757Z,4.90
2022-12-01T17:23:50.252Z,4.84
2022-12-01T17:26:18.975Z,4.90
2022-12-01T17:28:45.769Z,4.86
2022-12-01T17:31:12.841Z,4.91
2022-12-01T17:33:39.743Z,4.89
2022-12-01T17:36:10.469Z,4.89
2022-12-01T17:38:39.338Z,4.87
2022-12-01T17:41:10.906Z,4.85
2022-12-01T17:43:39.164Z,4.81
2022-12-01T17:46:08.054Z,4.83
2022-12-01T17:48:39.545Z,4.85
2022-12-01T17:51:07.041Z,4.84
2022-12-01T17:53:33.624Z,4.87
2022-12-01T17:55:59.997Z,4.88
2022-12-01T17:58:26.366Z,4.86
2022-12-01T18:00:53.719Z,4.89
2022-12-01T18:03:20.543Z,4.94
2022-12-01T18:05:57.216Z,4.87
2022-12-01T18:08:25.283Z,4.79
2022-12-01T18:10:51.882Z,4.78
2022-12-01T18:13:20.296Z,4.79
2022-12-01T18:15:48.042Z,4.87
2022-12-01T18:18:14.650Z,4.89
2022-12-01T18:20:42.622Z,4.89
2022-12-01T18:23:10.442Z,4.86
2022-12-01T18:25:37.768Z,4.93
2022-12-01T18:28:05.181Z,4.91
2022-12-01T18:30:33.951Z,4.92
2022-12-01T18:33:01.045Z,4.88
2022-12-01T18:35:31.725Z,4.83
2022-12-01T18:37:58.556Z,4.79
2022-12-01T18:40:24.890Z,4.85
2022-12-01T18:42:51.200Z,4.85
2022-12-01T18:45:21.331Z,4.76
2022-12-01T18:47:48.344Z,4.73
2022-12-01T18:50:15.183Z,4.77
2022-12-01T18:52:41.578Z,4.79
2022-12-01T18:55:08.427Z,4.76
2022-12-01T18:57:34.933Z,4.85
2022-12-01T19:00:02.255Z,4.82
2022-12-01T19:02:28.872Z,4.81
2022-12-01T19:04:55.426Z,4.82
2022-12-01T19:07:28.038Z,4.75
2022-12-01T19:09:56.012Z,4.78
2022-12-01T19:12:22.341Z,4.75
2022-12-01T19:14:49.195Z,4.80
2022-12-01T19:17:15.685Z,4.73
2022-12-01T19:19:42.065Z,4.67
2022-12-01T19:22:08.588Z,4.74
2022-12-01T19:24:35.047Z,4.73
2022-12-01T19:27:01.558Z,4.71
2022-12-01T19:29:28.301Z,4.69
2022-12-01T19:31:54.913Z,4.67
2022-12-01T19:34:21.510Z,4.55
2022-12-01T19:36:49.904Z,4.52
2022-12-01T19:39:16.459Z,4.63
2022-12-01T19:41:42.905Z,4.56
2022-12-01T19:44:10.336Z,4.63
2022-12-01T19:46:36.740Z,4.52
2022-12-01T19:49:04.017Z,4.50
2022-12-01T19:51:35.275Z,4.45
2022-12-01T19:54:03.089Z,4.48
2022-12-01T19:56:29.801Z,4.39
2022-12-01T19:58:57.989Z,4.38
2022-12-01T20:01:24.612Z,4.38
2022-12-01T20:03:53.004Z,4.29
2022-12-01T20:06:24.565Z,4.46
2022-12-01T20:08:51.910Z,4.36
2022-12-01T20:11:18.663Z,4.35
2022-12-01T20:13:46.735Z,4.30
2022-12-01T20:16:21.635Z,4.35
2022-12-01T20:18:48.852Z,4.32
2022-12-01T20:21:19.822Z,4.45
2022-12-01T20:23:49.053Z,4.40
2022-12-01T20:26:17.013Z,4.46
2022-12-01T20:28:45.686Z,4.44
2022-12-01T20:31:16.017Z,4.41
2022-12-01T20:33:42.964Z,4.38
2022-12-01T20:36:09.919Z,4.52
2022-12-01T20:38:39.474Z,4.43
2022-12-01T20:41:06.854Z,4.43
2022-12-01T20:43:34.582Z,4.47
2022-12-01T20:46:01.649Z,4.34
2022-12-01T20:48:28.470Z,4.27
2022-12-01T20:50:54.869Z,4.46
2022-12-01T20:53:22.485Z,4.48
2022-12-01T20:55:49.167Z,4.45
2022-12-01T20:58:15.704Z,4.41
2022-12-01T21:00:44.387Z,4.53
2022-12-01T21:03:12.042Z,4.57
2022-12-01T21:05:43.684Z,4.50
2022-12-01T21:08:12.856Z,4.47
2022-12-01T21:10:42.656Z,4.52
2022-12-01T21:13:42.223Z,4.50
2022-12-01T21:16:19.723Z,4.48
2022-12-01T21:19:11.218Z,4.52
2022-12-01T21:21:41.469Z,4.54
2022-12-01T21:24:07.900Z,4.53
2022-12-01T21:26:39.258Z,4.56
2022-12-01T21:29:19.951Z,4.44
2022-12-01T21:31:49.520Z,4.50
2022-12-01T21:34:28.430Z,4.47
2022-12-01T21:36:57.366Z,4.53
2022-12-01T21:39:25.308Z,4.48
2022-12-01T21:41:56.862Z,4.50
2022-12-01T21:44:33.022Z,4.44
2022-12-01T21:47:13.213Z,4.42
2022-12-01T21:49:40.191Z,4.40
2022-12-01T21:52:14.570Z,4.41
2022-12-01T21:54:41.070Z,4.43
2022-12-01T21:57:42.960Z,4.43
2022-12-01T22:00:32.775Z,4.48
2022-12-01T22:03:08.415Z,4.38
2022-12-01T22:05:42.152Z,4.18
2022-12-01T22:08:14.751Z,4.11
2022-12-01T22:10:51.581Z,4.17
2022-12-01T22:13:19.470Z,4.10
2022-12-01T22:15:45.962Z,4.11
2022-12-01T22:18:32.402Z,4.15
2022-12-01T22:21:01.183Z,4.00
2022-12-01T22:23:34.050Z,3.96
2022-12-01T22:26:01.437Z,3.98
2022-12-01T22:28:27.902Z,3.97
2022-12-01T22:30:54.957Z,3.97
2022-12-01T22:33:24.590Z,3.91
2022-12-01T22:35:52.912Z,3.81
2022-12-01T22:38:34.728Z,3.71
2022-12-01T22:41:15.650Z,3.74
2022-12-01T22:43:50.863Z,3.83
2022-12-01T22:46:30.498Z,3.86
2022-12-01T22:49:10.847Z,3.93
2022-12-01T22:51:45.244Z,3.93
2022-12-01T22:54:14.557Z,3.93
2022-12-01T22:56:56.859Z,4.03
2022-12-01T22:59:36.125Z,3.89
2022-12-01T23:02:17.889Z,3.94
2022-12-01T23:04:46.870Z,3.84
2022-12-01T23:07:31.770Z,3.79
2022-12-01T23:10:21.732Z,3.76
2022-12-01T23:12:50.533Z,3.84
2022-12-01T23:15:38.401Z,3.89
2022-12-01T23:18:23.432Z,3.92
2022-12-01T23:20:53.098Z,3.83
2022-12-01T23:23:28.371Z,3.84
2022-12-01T23:25:55.295Z,3.83
2022-12-01T23:28:21.981Z,3.84
2022-12-01T23:30:52.832Z,3.92
2022-12-01T23:33:30.278Z,3.76
2022-12-01T23:36:02.212Z,3.82
2022-12-01T23:38:34.662Z,3.84
2022-12-01T23:41:04.256Z,3.77
2022-12-01T23:43:40.113Z,3.74
2022-12-01T23:46:19.431Z,3.80
2022-12-01T23:48:47.533Z,3.98
2022-12-01T23:51:24.420Z,3.86
2022-12-01T23:53:56.074Z,3.95
2022-12-01T23:56:27.914Z,3.91
2022-12-01T23:58:56.672Z,3.92
